Time;durP1;ratioP1;P1;durP2;ratioP2;P2;SDS_P1;SDS_P2;PMS_P1;PMS_P2;Temp;Humidity;BMP_temperature;BMP_pressure;BME280_temperature;BME280_humidity;BME280_pressure;Samples;Min_cycle;Max_cycle;Signal;HPM_P1;HPM_P2
2022/12/16 00:00:23;;;;;;;20.83;12.23;;;14.10;39.70;;;;;;6187227;23;45441;-73
2022/12/16 00:02:50;;;;;;;22.67;12.57;;;14.10;39.60;;;;;;6184386;23;47284;-74
2022/12/16 00:05:18;;;;;;;20.45;12.48;;;14.10;39.60;;;;;;6184228;23;45336;-74
2022/12/16 00:07:45;;;;;;;22.30;12.00;;;14.10;39.50;;;;;;6184656;23;45477;-74
2022/12/16 00:10:12;;;;;;;22.50;12.38;;;14.10;39.60;;;;;;6184492;23;45397;-73
2022/12/16 00:12:41;;;;;;;20.60;12.35;;;14.10;39.70;;;;;;6184133;23;45264;-73
2022/12/16 00:15:08;;;;;;;19.77;12.60;;;14.10;39.80;;;;;;6183921;23;45336;-74
2022/12/16 00:17:35;;;;;;;20.15;12.40;;;14.10;39.70;;;;;;6184072;23;45461;-73
2022/12/16 00:20:02;;;;;;;23.48;12.88;;;14.10;39.90;;;;;;6184196;23;45214;-73
2022/12/16 00:22:29;;;;;;;21.33;12.48;;;14.10;39.80;;;;;;6184444;23;47757;-73
2022/12/16 00:24:56;;;;;;;20.67;12.38;;;14.10;39.80;;;;;;6183752;23;45252;-74
2022/12/16 00:27:25;;;;;;;22.98;13.02;;;14.10;39.60;;;;;;6184569;23;45202;-74
2022/12/16 00:29:53;;;;;;;22.20;11.85;;;14.10;39.60;;;;;;6184838;23;45430;-74
2022/12/16 00:32:20;;;;;;;19.95;11.75;;;14.10;39.60;;;;;;6182748;22;46575;-75
2022/12/16 00:34:46;;;;;;;23.10;12.25;;;14.10;39.60;;;;;;6184056;23;45994;-74
2022/12/16 00:37:13;;;;;;;18.88;12.15;;;14.10;39.40;;;;;;6184143;23;45300;-73
2022/12/16 00:39:40;;;;;;;21.08;11.65;;;14.10;39.40;;;;;;6184320;23;45372;-74
2022/12/16 00:42:06;;;;;;;24.45;12.63;;;14.10;39.40;;;;;;6183849;23;47459;-74
2022/12/16 00:44:33;;;;;;;24.38;12.27;;;14.10;39.40;;;;;;6183775;23;45349;-74
2022/12/16 00:47:04;;;;;;;20.90;12.32;;;14.10;39.50;;;;;;6187951;23;45225;-72
2022/12/16 00:49:31;;;;;;;21.33;11.93;;;14.10;39.60;;;;;;6195223;23;45226;-74
2022/12/16 00:51:58;;;;;;;19.67;11.10;;;14.10;39.50;;;;;;6185053;23;46750;-73
2022/12/16 00:54:25;;;;;;;22.88;11.65;;;14.10;39.50;;;;;;6185263;23;45169;-74
2022/12/16 00:56:52;;;;;;;21.30;12.60;;;14.00;39.40;;;;;;6183369;23;45428;-74
2022/12/16 00:59:19;;;;;;;20.23;11.95;;;14.00;39.50;;;;;;6183912;23;45352;-74
2022/12/16 01:01:45;;;;;;;22.17;12.07;;;14.00;39.50;;;;;;6183719;23;45319;-73
2022/12/16 01:04:14;;;;;;;18.83;11.75;;;14.00;39.40;;;;;;6184093;23;45504;-74
2022/12/16 01:06:41;;;;;;;20.55;11.68;;;14.10;39.40;;;;;;6183662;23;45219;-73
2022/12/16 01:09:07;;;;;;;22.80;12.80;;;14.10;38.90;;;;;;6183440;23;45479;-73
2022/12/16 01:11:34;;;;;;;21.95;12.55;;;14.10;38.20;;;;;;6182809;23;46844;-73
2022/12/16 01:14:04;;;;;;;20.48;12.05;;;14.00;37.60;;;;;;6183481;23;45308;-72
2022/12/16 01:16:31;;;;;;;21.90;13.02;;;14.00;37.10;;;;;;6182845;23;45151;-74
2022/12/16 01:18:57;;;;;;;19.02;11.98;;;13.90;36.70;;;;;;6182778;23;45329;-73
2022/12/16 01:21:26;;;;;;;21.85;13.10;;;13.90;36.30;;;;;;6183388;23;46298;-73
2022/12/16 01:23:54;;;;;;;21.92;12.77;;;13.90;36.20;;;;;;6183083;23;45449;-74
2022/12/16 01:26:21;;;;;;;24.15;12.90;;;13.90;35.90;;;;;;6183120;23;45277;-73
2022/12/16 01:28:49;;;;;;;22.77;13.27;;;13.80;35.70;;;;;;6182793;23;45321;-73
2022/12/16 01:31:17;;;;;;;22.40;12.40;;;13.80;35.70;;;;;;6182972;23;48516;-74
2022/12/16 01:33:44;;;;;;;22.27;11.75;;;13.80;36.30;;;;;;6184771;23;45225;-74
2022/12/16 01:36:11;;;;;;;21.48;12.30;;;13.80;36.90;;;;;;6185120;23;45210;-74
2022/12/16 01:38:42;;;;;;;20.15;12.20;;;13.90;37.30;;;;;;6184540;23;45243;-74
2022/12/16 01:41:11;;;;;;;23.23;12.00;;;13.90;37.50;;;;;;6183276;23;46395;-74
2022/12/16 01:43:39;;;;;;;25.05;12.45;;;13.90;37.90;;;;;;6183536;23;45397;-73
2022/12/16 01:46:10;;;;;;;17.17;11.48;;;13.90;37.80;;;;;;6184914;23;45229;-74
2022/12/16 01:48:46;;;;;;;21.20;11.95;;;13.90;37.70;;;;;;6185541;23;45443;-73
2022/12/16 01:51:21;;;;;;;22.00;12.23;;;14.00;39.00;;;;;;6184956;23;46438;-73
2022/12/16 01:53:53;;;;;;;18.42;11.18;;;14.00;37.90;;;;;;6184794;23;45245;-74
2022/12/16 01:56:24;;;;;;;20.85;10.60;;;14.00;37.90;;;;;;6184829;23;45263;-73
2022/12/16 01:58:51;;;;;;;20.27;11.95;;;14.00;37.80;;;;;;6185409;23;45451;-73
2022/12/16 02:01:18;;;;;;;21.00;11.63;;;14.00;38.70;;;;;;6184965;23;48349;-73
2022/12/16 02:03:46;;;;;;;19.10;11.77;;;14.00;38.20;;;;;;6185087;23;45215;-73
2022/12/16 02:06:12;;;;;;;20.75;11.85;;;14.00;38.30;;;;;;6185659;23;45218;-74
2022/12/16 02:08:39;;;;;;;22.27;12.32;;;14.00;38.30;;;;;;6186759;23;45181;-73
2022/12/16 02:11:19;;;;;;;21.85;12.00;;;14.00;38.30;;;;;;6186150;23;45544;-74
2022/12/16 02:17:44;;;;;;;17.60;11.00;;;14.00;38.50;;;;;;6186408;23;45319;-72
2022/12/16 02:21:05;;;;;;;19.13;11.15;;;14.00;38.60;;;;;;6186091;23;45524;-74
2022/12/16 02:24:08;;;;;;;18.80;11.43;;;14.00;38.40;;;;;;6138129;23;45692;-74
2022/12/16 02:27:08;;;;;;;21.45;11.32;;;14.00;38.40;;;;;;6185380;23;45832;-73
2022/12/16 02:30:07;;;;;;;19.13;11.35;;;14.00;38.10;;;;;;6185840;23;45259;-73
2022/12/16 02:32:47;;;;;;;21.00;12.02;;;14.00;38.10;;;;;;6065918;23;45438;-74
2022/12/16 02:36:02;;;;;;;21.00;12.07;;;14.00;38.00;;;;;;6169333;23;46492;-74
2022/12/16 02:38:38;;;;;;;19.90;11.38;;;14.00;38.10;;;;;;6186042;23;45731;-73
2022/12/16 02:41:11;;;;;;;20.40;11.25;;;14.00;38.30;;;;;;6186110;23;45254;-74
2022/12/16 02:43:53;;;;;;;23.02;12.23;;;14.00;38.30;;;;;;6186415;23;45409;-74
2022/12/16 02:46:23;;;;;;;20.95;11.95;;;14.00;38.20;;;;;;6185535;23;47280;-74
2022/12/16 02:48:52;;;;;;;21.13;11.95;;;14.00;38.30;;;;;;6186237;23;45912;-74
2022/12/16 02:51:20;;;;;;;22.65;12.30;;;14.00;38.30;;;;;;6186058;23;45201;-75
2022/12/16 02:53:50;;;;;;;22.55;12.50;;;14.00;38.20;;;;;;6186436;23;45285;-74
2022/12/16 02:56:28;;;;;;;21.48;11.68;;;14.00;38.40;;;;;;6184486;22;46222;-74
2022/12/16 02:59:07;;;;;;;21.48;11.77;;;14.00;38.40;;;;;;6185824;23;45197;-73
2022/12/16 03:01:39;;;;;;;20.85;11.90;;;14.00;38.20;;;;;;6186062;23;45278;-74
2022/12/16 03:04:12;;;;;;;20.48;12.02;;;14.00;38.30;;;;;;6186293;23;45607;-74
2022/12/16 03:06:42;;;;;;;20.05;11.75;;;14.00;38.30;;;;;;6185874;23;46418;-73
2022/12/16 03:09:12;;;;;;;20.02;11.50;;;14.00;38.00;;;;;;6185669;22;45205;-73
2022/12/16 03:11:42;;;;;;;22.05;12.15;;;14.00;37.80;;;;;;6186542;23;45220;-74
2022/12/16 03:14:15;;;;;;;21.42;11.73;;;14.00;37.80;;;;;;6185811;23;45246;-73
2022/12/16 03:16:43;;;;;;;20.38;12.23;;;14.00;37.90;;;;;;6185561;23;47909;-74
2022/12/16 03:19:12;;;;;;;21.30;11.95;;;14.10;38.10;;;;;;6186045;22;45231;-74
2022/12/16 03:21:45;;;;;;;19.33;11.50;;;14.00;38.00;;;;;;6185553;23;45309;-73
2022/12/16 03:24:13;;;;;;;20.77;12.43;;;14.00;37.80;;;;;;6185696;23;45380;-74
2022/12/16 03:26:44;;;;;;;20.20;12.13;;;14.00;37.80;;;;;;6185105;23;45456;-74
2022/12/16 03:29:15;;;;;;;20.63;12.13;;;14.00;37.70;;;;;;6185842;23;45079;-73
2022/12/16 03:31:48;;;;;;;19.55;11.82;;;14.00;37.70;;;;;;6185246;23;45157;-74
2022/12/16 03:34:20;;;;;;;20.88;11.38;;;14.00;37.90;;;;;;6186056;23;45287;-74
2022/12/16 03:36:51;;;;;;;21.05;12.38;;;14.00;37.90;;;;;;6185499;23;46611;-73
2022/12/16 03:39:22;;;;;;;19.65;11.40;;;14.00;37.90;;;;;;6185683;23;45151;-74
2022/12/16 03:41:51;;;;;;;20.88;11.75;;;14.00;37.80;;;;;;6185683;23;45284;-74
2022/12/16 03:44:21;;;;;;;20.45;12.07;;;14.00;37.80;;;;;;6186047;23;45384;-74
2022/12/16 03:46:47;;;;;;;20.25;11.80;;;14.00;37.80;;;;;;6185275;23;47285;-74
2022/12/16 03:49:16;;;;;;;20.05;12.32;;;14.00;37.60;;;;;;6185281;23;45427;-74
2022/12/16 03:51:42;;;;;;;20.70;11.13;;;14.00;37.60;;;;;;6185808;23;45177;-75
2022/12/16 03:54:09;;;;;;;22.70;12.02;;;14.00;37.50;;;;;;6185592;23;45352;-74
2022/12/16 03:56:36;;;;;;;20.33;11.10;;;14.00;37.50;;;;;;6184843;23;47469;-74
2022/12/16 03:59:03;;;;;;;23.02;12.88;;;14.00;37.60;;;;;;6185613;23;45377;-73
2022/12/16 04:01:30;;;;;;;21.90;12.20;;;14.00;37.60;;;;;;6185731;23;45178;-74
2022/12/16 04:03:56;;;;;;;21.30;11.75;;;14.00;37.60;;;;;;6185571;23;45394;-74
2022/12/16 04:06:24;;;;;;;23.13;11.93;;;14.00;37.40;;;;;;6185064;23;47393;-74
2022/12/16 04:08:51;;;;;;;24.38;12.27;;;14.00;37.40;;;;;;6185204;23;45266;-74
2022/12/16 04:25:26;;;;;;;26.65;13.88;;;13.90;35.80;;;;;;6168334;23;45273;-73
2022/12/16 04:27:53;;;;;;;28.25;13.50;;;13.90;35.60;;;;;;6185634;23;48319;-74
2022/12/16 04:30:21;;;;;;;24.27;12.45;;;13.90;35.40;;;;;;6185604;23;45282;-74
